Friday, November 17, 2017, 2:31 PM EST
Back to Local

KWAL, Wallops Flight Fac Airport

Location: Wallops Island, VA, United States Lat: 37.933
Local Time: 2:31 PM EST (19:31 GMT) Lon: -75.467
Time Zone: US/Eastern Elev: 39 ft

Show me the last for .
Show Decoded

2017-11-17 13:54 METAR KWAL 171854Z 30009KT 10SM SCT250 12/01 A3013 RMK AO2 SLP200 T01170006 =
2017-11-17 12:54 METAR KWAL 171754Z 32010G18KT 10SM FEW250 12/00 A3014 RMK AO2 SLP204 T01170000
                 10117 20050 55010 =
2017-11-17 11:54 METAR KWAL 171654Z 33012KT 10SM FEW250 11/00 A3014 RMK AO2 SLP204 T01110000 =
2017-11-17 10:54 METAR KWAL 171554Z 32010KT 10SM FEW250 10/01 A3017 RMK AO2 SLP213 T01000006 =
2017-11-17 09:54 METAR KWAL 171454Z 33011G17KT 10SM CLR 09/01 A3017 RMK AO2 SLP214 T00890006
                 50009 =
2017-11-17 08:54 METAR KWAL 171354Z 33014G19KT 10SM FEW250 08/00 A3018 RMK AO2 SLP218 T00780000 =
2017-11-17 07:54 METAR KWAL 171254Z 31008KT 10SM FEW250 07/01 A3018 RMK AO2 SLP215 T00670006 =
2017-11-17 06:54 METAR KWAL 171154Z 30006KT 10SM FEW025 FEW250 05/01 A3015 RMK AO2 SLP206
                 T00500006 10061 20044 53015 =
2017-11-17 05:54 METAR KWAL 171054Z AUTO 31008KT 10SM CLR 05/01 A3013 RMK AO2 SLP200 T00500006 =
2017-11-17 04:54 METAR KWAL 170954Z AUTO 30008KT 10SM CLR 05/01 A3012 RMK AO2 SLP196 T00500006 =
2017-11-17 03:54 METAR KWAL 170854Z AUTO 29006KT 10SM CLR 06/01 A3011 RMK AO2 SLP191 T00560006
                 50007 =
2017-11-17 02:54 METAR KWAL 170754Z AUTO 27005KT 10SM CLR 06/01 A3011 RMK AO2 SLP193 T00560006 =
2017-11-17 01:54 METAR KWAL 170654Z AUTO 29007KT 10SM CLR 06/01 A3011 RMK AO2 SLP192 T00560011 =
2017-11-17 00:54 METAR KWAL 170554Z AUTO 31008KT 10SM CLR 06/01 A3008 RMK AO2 SLP184 T00610011
                 10117 20061 51014 =
2017-11-16 23:54 METAR KWAL 170454Z AUTO 32012KT 10SM CLR 07/00 A3008 RMK AO2 SLP181 T00720000
                 401610072 =
2017-11-16 22:54 METAR KWAL 170354Z AUTO 32011G18KT 10SM CLR 08/00 A3006 RMK AO2 SLP177 T00780000
                 =
2017-11-16 21:54 METAR KWAL 170254Z AUTO 32009G17KT 10SM CLR 09/01 A3004 RMK AO2 SLP170 T00890011
                 53027 =
2017-11-16 20:54 METAR KWAL 170154Z AUTO 33009KT 10SM CLR 10/02 A3002 RMK AO2 SLP162 T01000022 =
2017-11-16 19:54 METAR KWAL 170054Z AUTO 33009KT 10SM CLR 11/04 A2999 RMK AO2 SLP151 T01060044 =
2017-11-16 18:54 METAR KWAL 162354Z AUTO 32006KT 10SM BKN065 11/06 A2996 RMK AO2 SLP143 T01060056
                 10161 20100 53019 =
2017-11-16 17:54 METAR KWAL 162254Z AUTO 00000KT 10SM CLR 12/06 A2994 RMK AO2 SLP135 T01170056 =
2017-11-16 16:54 METAR KWAL 162154Z AUTO 28005KT 10SM CLR 13/06 A2992 RMK AO2 SLP128 T01280061 =
2017-11-16 15:54 METAR KWAL 162054Z 30008KT 10SM CLR 15/04 A2991 RMK AO2 SLP125 T01500044 53004 =
2017-11-16 14:54 METAR KWAL 161954Z 27008KT 10SM FEW050 FEW250 16/06 A2988 RMK AO2 SLP116
                 T01560061 =

Support USWX by starting your Amazon purchase here.